Time;durP1;ratioP1;P1;durP2;ratioP2;P2;SDS_P1;SDS_P2;PMS_P1;PMS_P2;Temp;Humidity;BMP_temperature;BMP_pressure;BME280_temperature;BME280_humidity;BME280_pressure;Samples;Min_cycle;Max_cycle;Signal;HPM_P1;HPM_P2
2023/06/23 00:00:29;;;;;;;;;6.50;6.50;;;;;;;;4962231;28;45557;-68
2023/06/23 00:02:54;;;;;;;;;5.25;5.25;;;;;;;;4962065;28;45523;-67
2023/06/23 00:05:20;;;;;;;;;7.00;7.00;;;;;;;;4959267;28;47099;-68
2023/06/23 00:07:45;;;;;;;;;5.50;5.50;;;;;;;;4957252;28;45812;-68
2023/06/23 00:10:11;;;;;;;;;7.00;7.00;;;;;;;;4965537;28;45504;-67
2023/06/23 00:12:37;;;;;;;;;7.75;7.00;;;;;;;;4975448;28;45419;-67
2023/06/23 00:15:03;;;;;;;;;6.75;5.25;;;;;;;;4974911;28;46486;-67
2023/06/23 00:17:28;;;;;;;;;10.25;8.50;;;;;;;;4973756;28;45400;-67
2023/06/23 00:19:54;;;;;;;;;7.50;7.50;;;;;;;;4962074;28;45401;-67
2023/06/23 00:22:19;;;;;;;;;5.50;5.25;;;;;;;;4967501;28;45469;-67
2023/06/23 00:24:44;;;;;;;;;8.75;6.50;;;;;;;;4964313;28;47126;-68
2023/06/23 00:27:10;;;;;;;;;6.75;6.25;;;;;;;;4959563;28;45432;-68
2023/06/23 00:29:35;;;;;;;;;5.00;5.00;;;;;;;;4962114;28;45596;-68
2023/06/23 00:32:01;;;;;;;;;6.00;5.00;;;;;;;;4960680;28;45310;-67
2023/06/23 00:34:27;;;;;;;;;6.25;5.75;;;;;;;;4955757;28;46803;-68
2023/06/23 00:36:52;;;;;;;;;6.50;6.25;;;;;;;;4955380;28;45282;-68
2023/06/23 00:39:18;;;;;;;;;6.75;5.25;;;;;;;;4960520;28;45428;-67
2023/06/23 00:41:43;;;;;;;;;7.00;7.00;;;;;;;;4969176;28;45537;-68
2023/06/23 00:44:09;;;;;;;;;4.75;4.75;;;;;;;;4968304;28;46075;-67
2023/06/23 00:46:35;;;;;;;;;6.00;5.00;;;;;;;;4967749;28;45472;-68
2023/06/23 00:49:00;;;;;;;;;6.00;6.00;;;;;;;;4976626;28;45485;-67
2023/06/23 00:51:26;;;;;;;;;7.50;5.25;;;;;;;;4966274;28;45480;-67
2023/06/23 00:53:52;;;;;;;;;6.75;6.75;;;;;;;;4965255;28;46155;-67
2023/06/23 00:56:21;;;;;;;;;6.25;5.75;;;;;;;;4964869;28;45519;-67
2023/06/23 00:58:47;;;;;;;;;6.00;5.00;;;;;;;;4965426;28;45705;-67
2023/06/23 01:01:12;;;;;;;;;7.75;3.50;;;;;;;;4964456;28;45576;-67
2023/06/23 01:03:37;;;;;;;;;4.25;4.25;;;;;;;;4966595;28;46174;-67
2023/06/23 01:06:09;;;;;;;;;5.00;4.25;;;;;;;;4963651;28;45649;-68
2023/06/23 01:08:42;;;;;;;;;7.25;7.25;;;;;;;;4963479;28;45331;-68
2023/06/23 01:11:17;;;;;;;;;5.00;5.00;;;;;;;;4964122;28;47093;-67
2023/06/23 01:13:46;;;;;;;;;9.00;7.50;;;;;;;;4964417;28;46121;-67
2023/06/23 01:16:15;;;;;;;;;5.00;5.00;;;;;;;;4964202;28;45443;-67
2023/06/23 01:18:57;;;;;;;;;6.50;5.25;;;;;;;;4964954;28;45531;-67
2023/06/23 01:21:29;;;;;;;;;5.25;4.75;;;;;;;;4964148;28;45576;-67
2023/06/23 01:23:54;;;;;;;;;6.50;6.50;;;;;;;;4963842;28;46565;-68
2023/06/23 01:26:34;;;;;;;;;5.25;5.25;;;;;;;;4963606;28;45462;-69
2023/06/23 01:29:01;;;;;;;;;4.50;4.50;;;;;;;;4963053;28;45432;-68
2023/06/23 01:31:26;;;;;;;;;5.00;2.50;;;;;;;;4960639;28;45599;-67
2023/06/23 01:33:56;;;;;;;;;10.50;9.25;;;;;;;;4971905;28;47105;-67
2023/06/23 01:36:26;;;;;;;;;5.25;5.00;;;;;;;;4977594;28;45263;-68
2023/06/23 01:38:54;;;;;;;;;4.50;4.50;;;;;;;;4977583;28;45373;-67
2023/06/23 01:41:21;;;;;;;;;7.00;5.00;;;;;;;;4977245;28;45343;-67
2023/06/23 01:43:48;;;;;;;;;7.50;6.00;;;;;;;;4977740;28;47215;-67
2023/06/23 01:46:25;;;;;;;;;5.25;5.25;;;;;;;;4976453;28;45450;-68
2023/06/23 01:48:51;;;;;;;;;7.25;7.25;;;;;;;;4972847;28;45476;-67
2023/06/23 01:51:17;;;;;;;;;8.25;5.75;;;;;;;;4977767;28;45397;-68
2023/06/23 01:53:43;;;;;;;;;8.75;7.50;;;;;;;;4975876;28;46304;-67
2023/06/23 01:56:09;;;;;;;;;8.75;8.50;;;;;;;;4977502;28;45379;-67
2023/06/23 01:58:35;;;;;;;;;7.00;7.00;;;;;;;;4976607;28;45376;-67
2023/06/23 02:01:01;;;;;;;;;10.25;7.50;;;;;;;;4978045;28;45359;-68
2023/06/23 02:03:28;;;;;;;;;9.25;7.25;;;;;;;;4977624;28;47023;-67
2023/06/23 02:05:54;;;;;;;;;7.25;6.25;;;;;;;;4977485;28;45397;-68
2023/06/23 02:08:20;;;;;;;;;9.00;6.25;;;;;;;;4977929;28;45373;-68
2023/06/23 02:10:45;;;;;;;;;10.00;8.75;;;;;;;;4977021;28;45437;-68
2023/06/23 02:13:14;;;;;;;;;8.75;7.00;;;;;;;;4977332;28;46517;-68
2023/06/23 02:15:40;;;;;;;;;8.50;8.00;;;;;;;;4977357;28;45385;-67
2023/06/23 02:18:07;;;;;;;;;4.50;4.50;;;;;;;;4972576;28;45454;-67
2023/06/23 02:20:33;;;;;;;;;8.25;7.00;;;;;;;;4966074;28;45326;-67
2023/06/23 02:22:59;;;;;;;;;3.75;3.50;;;;;;;;4957191;28;45489;-67
2023/06/23 02:25:25;;;;;;;;;7.25;5.00;;;;;;;;4956858;28;45409;-67
2023/06/23 02:27:50;;;;;;;;;5.75;5.75;;;;;;;;4957400;28;45450;-67
2023/06/23 02:30:20;;;;;;;;;7.25;7.25;;;;;;;;4957664;28;45381;-67
2023/06/23 02:32:45;;;;;;;;;7.25;6.75;;;;;;;;4957366;28;47052;-67
2023/06/23 02:35:13;;;;;;;;;8.50;8.50;;;;;;;;4957236;28;45255;-67
2023/06/23 02:37:40;;;;;;;;;5.00;5.00;;;;;;;;4957471;28;45455;-67
2023/06/23 02:40:10;;;;;;;;;5.00;5.00;;;;;;;;4957022;28;45484;-67
2023/06/23 02:42:39;;;;;;;;;5.00;5.00;;;;;;;;4964377;28;46952;-67
2023/06/23 02:45:08;;;;;;;;;6.25;4.50;;;;;;;;4966459;28;45386;-67
2023/06/23 02:47:38;;;;;;;;;7.00;5.75;;;;;;;;4966976;28;45420;-68
2023/06/23 02:50:05;;;;;;;;;5.75;5.75;;;;;;;;4955949;28;45466;-67
2023/06/23 02:52:34;;;;;;;;;6.00;5.50;;;;;;;;4955904;28;48295;-67
2023/06/23 02:55:01;;;;;;;;;5.50;5.50;;;;;;;;4971114;28;45357;-68
2023/06/23 02:57:27;;;;;;;;;4.00;4.00;;;;;;;;4976159;28;45374;-67
2023/06/23 02:59:53;;;;;;;;;5.25;4.25;;;;;;;;4976740;28;45423;-67
2023/06/23 03:02:22;;;;;;;;;7.25;5.75;;;;;;;;4976702;28;45662;-68
2023/06/23 03:04:47;;;;;;;;;5.00;5.00;;;;;;;;4975171;28;45463;-67
2023/06/23 03:07:13;;;;;;;;;6.50;3.75;;;;;;;;4975028;28;45424;-67
2023/06/23 03:09:38;;;;;;;;;8.00;7.00;;;;;;;;4975928;28;45520;-67
2023/06/23 03:12:03;;;;;;;;;5.25;5.25;;;;;;;;4976228;28;46172;-67
2023/06/23 03:14:29;;;;;;;;;8.25;5.00;;;;;;;;4976117;28;45247;-67
2023/06/23 03:16:59;;;;;;;;;7.50;6.25;;;;;;;;4972993;28;45408;-67
2023/06/23 03:19:24;;;;;;;;;10.00;5.25;;;;;;;;4967569;28;45707;-67
2023/06/23 03:21:53;;;;;;;;;5.50;5.00;;;;;;;;4958811;28;45434;-67
2023/06/23 03:24:20;;;;;;;;;5.75;5.75;;;;;;;;4965910;28;45605;-67
2023/06/23 03:26:46;;;;;;;;;7.75;5.75;;;;;;;;4959794;28;45452;-67
2023/06/23 03:29:12;;;;;;;;;7.00;5.50;;;;;;;;4956479;28;45368;-67
2023/06/23 03:31:39;;;;;;;;;8.50;5.00;;;;;;;;4955242;28;46125;-67
2023/06/23 03:34:05;;;;;;;;;7.50;5.75;;;;;;;;4956126;28;45425;-67
2023/06/23 03:36:30;;;;;;;;;6.50;6.00;;;;;;;;4956746;28;45414;-67
2023/06/23 03:39:01;;;;;;;;;4.50;4.50;;;;;;;;4956691;28;45325;-68
2023/06/23 03:41:30;;;;;;;;;5.25;5.25;;;;;;;;4956595;28;45309;-67
2023/06/23 03:44:00;;;;;;;;;4.25;3.25;;;;;;;;4975839;28;45499;-67
2023/06/23 03:46:29;;;;;;;;;5.75;5.75;;;;;;;;4974853;28;45436;-67
2023/06/23 03:48:56;;;;;;;;;8.00;6.75;;;;;;;;4975792;28;45386;-67
2023/06/23 03:51:24;;;;;;;;;6.75;6.75;;;;;;;;4975419;28;46217;-67
2023/06/23 03:53:50;;;;;;;;;8.75;6.50;;;;;;;;4977167;28;45543;-68
2023/06/23 03:56:16;;;;;;;;;6.25;6.25;;;;;;;;4995417;28;45346;-67
2023/06/23 03:58:43;;;;;;;;;7.75;7.25;;;;;;;;4995419;28;45430;-67
2023/06/23 04:01:08;;;;;;;;;6.50;5.50;;;;;;;;4995063;28;47284;-67
2023/06/23 04:03:36;;;;;;;;;6.75;4.50;;;;;;;;4995066;28;45682;-67
2023/06/23 04:06:05;;;;;;;;;7.25;6.25;;;;;;;;4973469;28;45416;-68
2023/06/23 04:08:31;;;;;;;;;9.00;7.50;;;;;;;;4968086;28;45564;-67
2023/06/23 04:10:57;;;;;;;;;4.25;4.25;;;;;;;;4956233;28;46290;-67
2023/06/23 04:13:23;;;;;;;;;13.00;7.75;;;;;;;;4956091;28;45499;-67
2023/06/23 04:15:50;;;;;;;;;7.25;7.25;;;;;;;;4955678;28;45513;-67
2023/06/23 04:18:16;;;;;;;;;7.50;7.00;;;;;;;;4955600;28;45553;-67
2023/06/23 04:20:44;;;;;;;;;5.50;5.00;;;;;;;;4954470;28;47592;-67
2023/06/23 04:23:09;;;;;;;;;6.50;6.50;;;;;;;;4955792;28;45358;-67
2023/06/23 04:25:36;;;;;;;;;3.50;3.50;;;;;;;;4956215;28;45267;-67
2023/06/23 04:28:03;;;;;;;;;5.75;5.75;;;;;;;;4956192;28;45271;-67
2023/06/23 04:30:31;;;;;;;;;5.50;5.50;;;;;;;;4955735;28;46362;-67
2023/06/23 04:32:56;;;;;;;;;5.75;5.75;;;;;;;;4955399;28;45511;-67
2023/06/23 04:35:21;;;;;;;;;4.25;2.50;;;;;;;;4955852;28;45443;-67
2023/06/23 04:37:49;;;;;;;;;4.00;3.75;;;;;;;;4954159;28;45436;-67
2023/06/23 04:40:25;;;;;;;;;8.25;7.50;;;;;;;;4970430;28;46980;-67
2023/06/23 04:42:53;;;;;;;;;5.25;5.25;;;;;;;;4966218;28;45264;-67
2023/06/23 04:45:21;;;;;;;;;4.00;4.00;;;;;;;;4975096;28;45404;-67
2023/06/23 04:47:51;;;;;;;;;7.25;4.00;;;;;;;;4974567;28;45649;-67
2023/06/23 04:50:17;;;;;;;;;4.50;4.50;;;;;;;;4974598;28;45322;-67
2023/06/23 04:52:46;;;;;;;;;7.25;4.00;;;;;;;;4974045;28;45358;-67
2023/06/23 04:55:13;;;;;;;;;4.00;4.00;;;;;;;;4974844;28;45312;-67
2023/06/23 04:57:40;;;;;;;;;6.75;5.00;;;;;;;;4992913;28;45384;-67
2023/06/23 05:00:07;;;;;;;;;3.25;3.25;;;;;;;;4993519;28;47190;-69
2023/06/23 05:02:33;;;;;;;;;3.00;3.00;;;;;;;;4994236;28;45357;-69
2023/06/23 05:04:59;;;;;;;;;6.00;5.50;;;;;;;;4994475;28;45472;-69
2023/06/23 05:07:26;;;;;;;;;5.50;4.25;;;;;;;;4993819;28;45613;-70
2023/06/23 05:09:53;;;;;;;;;6.00;6.00;;;;;;;;4994000;28;46474;-69
2023/06/23 05:12:19;;;;;;;;;5.50;5.00;;;;;;;;4992310;28;45427;-69
2023/06/23 05:14:46;;;;;;;;;7.25;7.25;;;;;;;;4993799;28;45525;-68
2023/06/23 05:17:12;;;;;;;;;9.25;6.25;;;;;;;;4992348;28;45768;-69
2023/06/23 05:19:40;;;;;;;;;4.00;3.00;;;;;;;;4992807;28;47390;-69
2023/06/23 05:22:08;;;;;;;;;2.75;2.75;;;;;;;;4993951;28;45340;-69
2023/06/23 05:24:35;;;;;;;;;4.75;3.75;;;;;;;;4994307;28;45357;-70
2023/06/23 05:27:02;;;;;;;;;5.00;5.00;;;;;;;;4993653;28;45611;-68
2023/06/23 05:29:28;;;;;;;;;3.50;3.50;;;;;;;;4995719;28;47075;-68
2023/06/23 05:31:54;;;;;;;;;4.00;4.00;;;;;;;;4979475;28;45657;-68
2023/06/23 05:34:21;;;;;;;;;7.25;4.50;;;;;;;;4965428;28;45716;-68
2023/06/23 05:36:48;;;;;;;;;5.25;4.00;;;;;;;;4973938;28;45424;-68
2023/06/23 05:39:17;;;;;;;;;6.75;3.75;;;;;;;;4970014;28;45757;-68
2023/06/23 05:41:42;;;;;;;;;5.75;5.75;;;;;;;;4961729;28;45367;-68
2023/06/23 05:44:07;;;;;;;;;8.00;4.25;;;;;;;;4976536;28;45602;-68
2023/06/23 05:46:34;;;;;;;;;6.50;5.00;;;;;;;;4971074;28;45404;-68
2023/06/23 05:49:02;;;;;;;;;3.00;3.00;;;;;;;;4973351;28;47140;-68
2023/06/23 05:51:29;;;;;;;;;6.00;4.00;;;;;;;;4958095;28;45406;-68
2023/06/23 05:53:55;;;;;;;;;5.00;4.00;;;;;;;;4964200;28;45380;-68
2023/06/23 05:56:21;;;;;;;;;7.25;5.50;;;;;;;;4977171;28;45338;-68
2023/06/23 05:58:47;;;;;;;;;7.40;6.00;;;;;;;;4975787;28;45392;-71
2023/06/23 06:01:15;;;;;;;;;5.25;5.25;;;;;;;;4976548;28;45275;-70
2023/06/23 06:03:44;;;;;;;;;4.00;4.00;;;;;;;;4977231;28;45430;-68
2023/06/23 06:06:10;;;;;;;;;5.50;5.50;;;;;;;;4977204;28;45342;-69
2023/06/23 06:08:37;;;;;;;;;5.25;5.25;;;;;;;;4976441;28;46936;-69
2023/06/23 06:11:04;;;;;;;;;5.00;3.75;;;;;;;;4977261;28;45378;-67
2023/06/23 06:13:33;;;;;;;;;5.00;4.75;;;;;;;;4977432;28;45413;-68
2023/06/23 06:15:58;;;;;;;;;9.75;5.00;;;;;;;;4977401;28;45572;-68
2023/06/23 06:18:24;;;;;;;;;5.00;5.00;;;;;;;;4977627;28;46086;-69
2023/06/23 06:20:50;;;;;;;;;6.75;3.75;;;;;;;;4977607;28;45319;-68
2023/06/23 06:23:16;;;;;;;;;9.00;6.00;;;;;;;;4975363;28;45346;-69
2023/06/23 06:25:44;;;;;;;;;6.00;5.75;;;;;;;;4974038;28;45529;-68
2023/06/23 06:28:10;;;;;;;;;6.50;6.50;;;;;;;;4958852;28;46244;-68
2023/06/23 06:30:37;;;;;;;;;6.75;5.50;;;;;;;;4957041;28;45509;-68
2023/06/23 06:33:03;;;;;;;;;6.00;6.00;;;;;;;;4957437;28;45421;-68
2023/06/23 06:35:30;;;;;;;;;5.75;5.75;;;;;;;;4957458;28;45633;-68
2023/06/23 06:37:56;;;;;;;;;5.50;5.50;;;;;;;;4956307;28;46228;-68
2023/06/23 06:40:23;;;;;;;;;4.75;3.50;;;;;;;;4955837;28;45415;-68
2023/06/23 06:42:48;;;;;;;;;4.00;4.00;;;;;;;;4967572;28;45391;-68
2023/06/23 06:45:13;;;;;;;;;5.00;5.00;;;;;;;;4973735;28;45654;-68
2023/06/23 06:47:42;;;;;;;;;7.00;5.00;;;;;;;;4967853;28;46210;-68
2023/06/23 06:50:09;;;;;;;;;7.75;4.50;;;;;;;;4976408;28;45460;-68
2023/06/23 06:52:36;;;;;;;;;5.25;5.00;;;;;;;;4976777;28;45298;-68
2023/06/23 06:55:03;;;;;;;;;5.75;5.75;;;;;;;;4976636;28;45540;-68
2023/06/23 06:57:28;;;;;;;;;4.75;4.75;;;;;;;;4964626;28;46215;-69
2023/06/23 06:59:53;;;;;;;;;6.50;4.75;;;;;;;;4965783;28;45389;-69
2023/06/23 07:02:19;;;;;;;;;5.50;5.50;;;;;;;;4957144;28;45465;-68
2023/06/23 07:04:44;;;;;;;;;7.00;7.00;;;;;;;;4957289;28;45353;-68
2023/06/23 07:07:13;;;;;;;;;5.75;5.00;;;;;;;;4957062;28;46079;-69
2023/06/23 07:09:38;;;;;;;;;5.25;4.50;;;;;;;;4956903;28;45456;-68
2023/06/23 07:12:06;;;;;;;;;4.25;4.25;;;;;;;;4956021;28;45456;-69
2023/06/23 07:14:31;;;;;;;;;8.25;3.50;;;;;;;;4956977;28;45342;-69
2023/06/23 07:16:56;;;;;;;;;7.75;5.25;;;;;;;;4956672;28;46311;-68
2023/06/23 07:19:21;;;;;;;;;4.25;4.25;;;;;;;;4956882;28;45323;-68
2023/06/23 07:21:46;;;;;;;;;4.00;4.00;;;;;;;;4972138;28;45508;-68
2023/06/23 07:24:11;;;;;;;;;6.50;5.00;;;;;;;;4956903;28;45581;-69
2023/06/23 07:26:37;;;;;;;;;4.50;4.00;;;;;;;;4956327;28;46423;-68
2023/06/23 07:29:02;;;;;;;;;4.75;4.00;;;;;;;;4956701;28;45252;-68
2023/06/23 07:31:28;;;;;;;;;9.00;5.00;;;;;;;;4955862;28;45319;-68
2023/06/23 07:33:53;;;;;;;;;9.75;5.50;;;;;;;;4955980;28;45282;-68
2023/06/23 07:36:18;;;;;;;;;3.25;3.25;;;;;;;;4956361;28;46137;-68
2023/06/23 07:38:43;;;;;;;;;9.25;7.00;;;;;;;;4956174;28;45351;-68
2023/06/23 07:41:09;;;;;;;;;2.00;1.00;;;;;;;;4956584;28;46030;-68
2023/06/23 07:43:34;;;;;;;;;3.75;3.75;;;;;;;;4972886;28;45389;-68
2023/06/23 07:45:59;;;;;;;;;7.25;6.75;;;;;;;;4975397;28;46051;-68
2023/06/23 07:48:24;;;;;;;;;6.75;5.25;;;;;;;;4975413;28;45360;-68
2023/06/23 07:50:49;;;;;;;;;5.25;4.75;;;;;;;;4975179;28;45409;-69
2023/06/23 07:53:14;;;;;;;;;4.50;4.25;;;;;;;;4974107;28;45500;-69
2023/06/23 07:55:40;;;;;;;;;7.25;5.00;;;;;;;;4973738;28;47216;-68
2023/06/23 07:58:05;;;;;;;;;5.25;5.25;;;;;;;;4966453;28;45478;-68
2023/06/23 08:00:30;;;;;;;;;5.00;5.00;;;;;;;;4955799;28;45357;-68
2023/06/23 08:02:56;;;;;;;;;5.25;4.25;;;;;;;;4955219;28;45567;-68
2023/06/23 08:05:21;;;;;;;;;6.33;4.00;;;;;;;;4955346;28;46080;-68
2023/06/23 08:07:48;;;;;;;;;4.67;4.00;;;;;;;;4955434;28;45364;-67
2023/06/23 08:10:13;;;;;;;;;5.50;5.00;;;;;;;;4955182;28;45334;-68
2023/06/23 08:12:38;;;;;;;;;5.75;4.00;;;;;;;;4955228;28;45330;-68
2023/06/23 08:15:04;;;;;;;;;5.75;5.25;;;;;;;;4953779;28;45509;-68
2023/06/23 08:17:30;;;;;;;;;3.75;3.75;;;;;;;;4966741;28;45469;-69
2023/06/23 08:19:55;;;;;;;;;4.00;4.00;;;;;;;;4956104;28;45338;-68
2023/06/23 08:22:20;;;;;;;;;3.33;3.33;;;;;;;;4955389;28;45303;-68
2023/06/23 08:24:45;;;;;;;;;2.33;2.33;;;;;;;;4955540;28;45372;-69
2023/06/23 08:27:11;;;;;;;;;5.50;3.25;;;;;;;;4959236;28;45355;-68
2023/06/23 08:29:37;;;;;;;;;5.00;3.33;;;;;;;;4974187;28;45373;-68
2023/06/23 08:32:03;;;;;;;;;2.00;2.00;;;;;;;;4961268;28;45381;-68
2023/06/23 08:34:28;;;;;;;;;5.75;3.50;;;;;;;;4954224;28;46310;-68
2023/06/23 08:36:53;;;;;;;;;4.33;4.33;;;;;;;;4956015;28;45195;-69
2023/06/23 08:39:19;;;;;;;;;5.50;3.00;;;;;;;;4966416;28;45376;-69
2023/06/23 08:41:45;;;;;;;;;4.50;4.00;;;;;;;;4957809;28;45405;-69
2023/06/23 08:44:13;;;;;;;;;5.00;5.00;;;;;;;;4975128;28;46440;-68
2023/06/23 08:46:40;;;;;;;;;3.00;3.00;;;;;;;;4973867;28;45779;-68
2023/06/23 08:49:08;;;;;;;;;3.00;3.00;;;;;;;;4975578;28;45349;-68
2023/06/23 08:51:33;;;;;;;;;3.00;3.00;;;;;;;;4975065;28;45398;-68
2023/06/23 08:53:59;;;;;;;;;5.00;4.00;;;;;;;;4974046;28;46554;-68
2023/06/23 08:56:25;;;;;;;;;5.00;4.00;;;;;;;;4975348;28;45340;-68
2023/06/23 08:58:50;;;;;;;;;4.33;1.33;;;;;;;;4975318;28;45404;-68
2023/06/23 09:01:15;;;;;;;;;3.00;3.00;;;;;;;;4970276;28;45382;-68
2023/06/23 09:03:41;;;;;;;;;2.00;2.00;;;;;;;;4965739;28;45321;-68
2023/06/23 09:06:06;;;;;;;;;3.00;3.00;;;;;;;;4968252;28;45445;-68
2023/06/23 09:08:31;;;;;;;;;2.00;2.00;;;;;;;;4969685;28;45408;-68
2023/06/23 09:10:56;;;;;;;;;2.33;2.33;;;;;;;;4973791;28;45594;-69
2023/06/23 09:13:27;;;;;;;;;2.33;1.33;;;;;;;;4958580;28;46292;-68
2023/06/23 09:15:52;;;;;;;;;3.00;1.00;;;;;;;;4960078;28;45497;-68
2023/06/23 09:18:18;;;;;;;;;1.33;1.33;;;;;;;;4965060;28;46050;-69
2023/06/23 09:20:44;;;;;;;;;3.25;3.00;;;;;;;;4969128;28;45339;-69
2023/06/23 09:23:16;;;;;;;;;1.67;1.67;;;;;;;;4965710;28;47161;-68
2023/06/23 09:25:44;;;;;;;;;3.33;2.67;;;;;;;;4970542;28;45523;-69
2023/06/23 09:28:29;;;;;;;;;2.67;1.33;;;;;;;;4975209;28;45408;-69
2023/06/23 09:30:58;;;;;;;;;2.00;2.00;;;;;;;;4976259;28;45460;-69
2023/06/23 09:33:24;;;;;;;;;4.25;3.25;;;;;;;;4962292;28;46197;-69
2023/06/23 09:35:50;;;;;;;;;2.00;2.00;;;;;;;;4966034;28;45403;-69
2023/06/23 09:38:20;;;;;;;;;1.00;1.00;;;;;;;;4969273;28;45444;-69
2023/06/23 09:40:45;;;;;;;;;1.00;1.00;;;;;;;;4962034;28;45492;-69
2023/06/23 09:43:12;;;;;;;;;2.25;2.25;;;;;;;;4977588;28;45491;-68
2023/06/23 09:45:37;;;;;;;;;2.00;1.00;;;;;;;;4977903;28;45498;-68
2023/06/23 09:48:03;;;;;;;;;0.67;0.67;;;;;;;;4971310;28;45472;-68
2023/06/23 09:50:28;;;;;;;;;1.00;1.00;;;;;;;;4958131;28;45471;-69
2023/06/23 09:53:03;;;;;;;;;1.00;1.00;;;;;;;;4959341;28;47256;-68
2023/06/23 09:55:31;;;;;;;;;1.50;1.50;;;;;;;;4970702;28;45318;-68
2023/06/23 09:57:57;;;;;;;;;2.50;1.75;;;;;;;;4960631;28;45619;-68
2023/06/23 10:00:32;;;;;;;;;1.00;1.00;;;;;;;;4966999;28;45376;-69
2023/06/23 10:03:00;;;;;;;;;2.00;2.00;;;;;;;;4958027;28;45395;-68
2023/06/23 10:05:32;;;;;;;;;0.25;0.25;;;;;;;;4959946;28;45438;-68
2023/06/23 10:08:04;;;;;;;;;2.00;2.00;;;;;;;;4958394;28;45392;-68
2023/06/23 10:10:30;;;;;;;;;2.00;2.00;;;;;;;;4958470;28;45335;-68
2023/06/23 10:12:55;;;;;;;;;1.25;1.25;;;;;;;;4956527;28;46965;-69
2023/06/23 10:15:22;;;;;;;;;3.75;2.75;;;;;;;;4966964;28;45407;-69
2023/06/23 10:17:48;;;;;;;;;2.00;2.00;;;;;;;;4976865;28;45395;-69
2023/06/23 10:20:13;;;;;;;;;2.00;2.00;;;;;;;;4957312;28;45453;-70
2023/06/23 10:22:39;;;;;;;;;3.50;2.25;;;;;;;;4957550;28;46038;-68
2023/06/23 10:25:07;;;;;;;;;1.25;1.00;;;;;;;;4957748;28;45284;-69
2023/06/23 10:27:34;;;;;;;;;1.00;1.00;;;;;;;;4960153;28;45397;-68
2023/06/23 10:30:02;;;;;;;;;1.50;1.50;;;;;;;;4955742;28;45330;-69
2023/06/23 10:32:33;;;;;;;;;1.00;1.00;;;;;;;;4964905;28;47609;-69
2023/06/23 10:35:02;;;;;;;;;2.00;2.00;;;;;;;;4972240;28;45942;-68
2023/06/23 10:37:28;;;;;;;;;1.00;1.00;;;;;;;;4967875;28;45477;-69
2023/06/23 10:39:57;;;;;;;;;2.75;2.75;;;;;;;;4972057;28;45536;-68
2023/06/23 10:42:23;;;;;;;;;2.00;2.00;;;;;;;;4973092;28;46301;-69
2023/06/23 10:44:49;;;;;;;;;2.00;2.00;;;;;;;;4976000;28;45400;-69
2023/06/23 10:47:15;;;;;;;;;1.75;1.75;;;;;;;;4960124;28;45351;-69
2023/06/23 10:49:40;;;;;;;;;2.00;2.00;;;;;;;;4972250;28;45444;-69
2023/06/23 10:52:07;;;;;;;;;3.00;3.00;;;;;;;;4961918;28;46501;-69
2023/06/23 10:54:32;;;;;;;;;1.75;1.75;;;;;;;;4965435;28;45334;-68
2023/06/23 10:56:58;;;;;;;;;3.25;2.50;;;;;;;;4971030;28;45319;-69
2023/06/23 10:59:24;;;;;;;;;4.00;2.50;;;;;;;;4959647;28;45402;-69
2023/06/23 11:02:02;;;;;;;;;2.00;2.00;;;;;;;;4973948;28;46271;-69
2023/06/23 11:04:29;;;;;;;;;3.00;2.00;;;;;;;;4962546;28;45381;-68
2023/06/23 11:07:07;;;;;;;;;3.00;3.00;;;;;;;;4970035;28;45428;-68
2023/06/23 11:09:39;;;;;;;;;3.50;2.50;;;;;;;;4959598;28;45339;-68
2023/06/23 11:12:23;;;;;;;;;2.50;2.50;;;;;;;;4964647;28;47179;-68
2023/06/23 11:14:48;;;;;;;;;5.00;2.75;;;;;;;;4974979;28;45380;-68
2023/06/23 11:17:13;;;;;;;;;3.25;3.25;;;;;;;;4959257;28;45402;-69
2023/06/23 11:19:39;;;;;;;;;1.00;1.00;;;;;;;;4972346;28;45377;-69
2023/06/23 11:22:08;;;;;;;;;2.00;2.00;;;;;;;;4962867;28;47367;-69
2023/06/23 11:24:33;;;;;;;;;4.00;3.00;;;;;;;;4966349;28;45514;-69
2023/06/23 11:27:02;;;;;;;;;2.00;2.00;;;;;;;;4969744;28;45397;-69
2023/06/23 11:29:28;;;;;;;;;2.50;1.75;;;;;;;;4970489;28;45457;-69
2023/06/23 11:32:11;;;;;;;;;2.25;2.00;;;;;;;;4969491;28;45582;-68
2023/06/23 11:34:57;;;;;;;;;2.00;2.00;;;;;;;;4967821;28;45515;-68
2023/06/23 11:37:24;;;;;;;;;3.50;3.50;;;;;;;;4965618;28;45435;-67
2023/06/23 11:39:52;;;;;;;;;1.25;1.25;;;;;;;;4962468;28;45424;-67
2023/06/23 11:42:17;;;;;;;;;2.75;2.75;;;;;;;;4965018;28;46230;-67
2023/06/23 11:44:42;;;;;;;;;2.75;2.75;;;;;;;;4961265;28;46023;-67
2023/06/23 11:47:08;;;;;;;;;3.25;3.25;;;;;;;;4966775;28;45407;-67
2023/06/23 11:49:34;;;;;;;;;1.50;1.50;;;;;;;;4962723;28;45448;-67
2023/06/23 11:52:05;;;;;;;;;2.75;2.75;;;;;;;;4968288;28;46210;-68
2023/06/23 11:54:32;;;;;;;;;3.25;2.75;;;;;;;;4965639;28;45961;-68
2023/06/23 11:56:58;;;;;;;;;3.75;2.75;;;;;;;;4968087;28;45247;-68
2023/06/23 11:59:23;;;;;;;;;4.00;4.00;;;;;;;;4967953;28;45590;-68
2023/06/23 12:01:50;;;;;;;;;3.25;3.25;;;;;;;;4967441;28;46162;-68
2023/06/23 12:04:20;;;;;;;;;1.00;1.00;;;;;;;;4962397;28;47039;-68
2023/06/23 12:06:45;;;;;;;;;4.00;2.00;;;;;;;;4963552;28;46127;-68
2023/06/23 12:09:10;;;;;;;;;2.00;2.00;;;;;;;;4970668;28;45396;-68
2023/06/23 12:11:37;;;;;;;;;1.75;1.75;;;;;;;;4966225;28;46126;-68
2023/06/23 12:14:02;;;;;;;;;1.50;1.50;;;;;;;;4964153;28;45313;-68
2023/06/23 12:16:33;;;;;;;;;1.50;1.50;;;;;;;;4965329;28;45536;-68
2023/06/23 12:18:59;;;;;;;;;2.75;2.25;;;;;;;;4967485;28;45469;-68
2023/06/23 12:21:26;;;;;;;;;2.25;1.50;;;;;;;;4967700;28;45401;-68
2023/06/23 12:23:51;;;;;;;;;3.00;2.00;;;;;;;;4967994;28;45282;-68
2023/06/23 12:26:19;;;;;;;;;2.75;2.75;;;;;;;;4966514;28;45460;-68
2023/06/23 12:28:44;;;;;;;;;3.25;2.75;;;;;;;;4963582;28;45395;-68
2023/06/23 12:31:09;;;;;;;;;2.00;2.00;;;;;;;;4964879;28;46037;-68
2023/06/23 12:33:38;;;;;;;;;5.25;3.25;;;;;;;;4961733;28;45334;-68
2023/06/23 12:36:04;;;;;;;;;2.75;1.00;;;;;;;;4963932;28;45405;-68
2023/06/23 12:38:32;;;;;;;;;2.00;2.00;;;;;;;;4961911;28;45474;-68
2023/06/23 12:41:17;;;;;;;;;3.00;3.00;;;;;;;;4969055;28;46263;-68
2023/06/23 12:43:43;;;;;;;;;2.00;2.00;;;;;;;;4970701;28;45528;-68
2023/06/23 12:46:11;;;;;;;;;2.00;2.00;;;;;;;;4966728;28;45410;-68
2023/06/23 12:48:38;;;;;;;;;1.75;1.75;;;;;;;;4968441;28;45451;-68
2023/06/23 12:51:03;;;;;;;;;1.50;1.25;;;;;;;;4968070;28;46045;-68
2023/06/23 12:53:28;;;;;;;;;3.00;3.00;;;;;;;;4965173;28;45452;-68
2023/06/23 12:55:54;;;;;;;;;2.25;2.25;;;;;;;;4969433;28;45636;-68
2023/06/23 12:58:19;;;;;;;;;1.25;1.25;;;;;;;;4971296;28;45372;-68
2023/06/23 13:00:44;;;;;;;;;2.00;2.00;;;;;;;;4964755;28;45381;-68
2023/06/23 13:03:14;;;;;;;;;2.00;2.00;;;;;;;;4967229;28;45372;-68
2023/06/23 13:05:40;;;;;;;;;1.00;1.00;;;;;;;;4966178;28;45441;-68
2023/06/23 13:08:05;;;;;;;;;3.00;3.00;;;;;;;;4964127;28;45814;-68
2023/06/23 13:10:30;;;;;;;;;4.00;2.25;;;;;;;;4967178;28;46048;-69
2023/06/23 13:12:55;;;;;;;;;2.00;2.00;;;;;;;;4965543;28;45430;-67
2023/06/23 13:15:21;;;;;;;;;2.25;2.25;;;;;;;;4966317;28;45544;-68
2023/06/23 13:17:46;;;;;;;;;2.00;2.00;;;;;;;;4966001;28;45536;-67
2023/06/23 13:20:11;;;;;;;;;3.00;1.75;;;;;;;;4972353;28;46172;-67
2023/06/23 13:22:36;;;;;;;;;2.75;2.75;;;;;;;;4965009;28;46093;-68
2023/06/23 13:25:02;;;;;;;;;2.50;2.50;;;;;;;;4968169;28;45624;-67
2023/06/23 13:27:27;;;;;;;;;1.00;1.00;;;;;;;;4968410;28;45475;-67
2023/06/23 13:29:52;;;;;;;;;2.25;2.25;;;;;;;;4964762;28;47189;-67
2023/06/23 13:32:20;;;;;;;;;2.00;2.00;;;;;;;;4965444;28;45689;-67
2023/06/23 13:34:46;;;;;;;;;2.25;2.25;;;;;;;;4966829;28;45573;-67
2023/06/23 13:37:11;;;;;;;;;4.00;2.50;;;;;;;;4968698;28;45483;-67
2023/06/23 13:39:37;;;;;;;;;2.50;2.50;;;;;;;;4967085;28;45546;-68
2023/06/23 13:42:02;;;;;;;;;3.75;3.00;;;;;;;;4968494;28;45484;-67
2023/06/23 13:44:28;;;;;;;;;3.00;3.00;;;;;;;;4969649;28;45413;-67
2023/06/23 13:46:53;;;;;;;;;1.25;1.25;;;;;;;;4968590;28;45475;-67
2023/06/23 13:49:19;;;;;;;;;2.75;2.75;;;;;;;;4966842;28;46232;-67
2023/06/23 13:51:44;;;;;;;;;1.75;1.75;;;;;;;;4969474;28;45461;-67
2023/06/23 13:54:09;;;;;;;;;2.00;1.25;;;;;;;;4964929;28;45485;-68
2023/06/23 13:56:35;;;;;;;;;2.00;2.00;;;;;;;;4966734;28;45575;-68
2023/06/23 13:59:00;;;;;;;;;2.50;2.50;;;;;;;;4967393;28;46095;-68
2023/06/23 14:01:25;;;;;;;;;3.00;3.00;;;;;;;;4971038;28;45482;-68
2023/06/23 14:03:53;;;;;;;;;3.00;2.00;;;;;;;;4965785;28;45445;-68
2023/06/23 14:06:18;;;;;;;;;2.75;2.75;;;;;;;;4948836;28;45712;-68
2023/06/23 14:08:44;;;;;;;;;1.00;1.00;;;;;;;;4969968;28;48173;-68
2023/06/23 14:11:09;;;;;;;;;1.75;1.75;;;;;;;;4965920;28;45450;-68
2023/06/23 14:13:35;;;;;;;;;1.75;1.75;;;;;;;;4968906;28;45664;-68
2023/06/23 14:16:00;;;;;;;;;3.00;3.00;;;;;;;;4968579;28;45382;-68
2023/06/23 14:18:25;;;;;;;;;2.00;2.00;;;;;;;;4966602;28;46134;-68
2023/06/23 14:20:51;;;;;;;;;2.00;2.00;;;;;;;;4967156;28;45452;-68
2023/06/23 14:23:16;;;;;;;;;2.25;2.25;;;;;;;;4966127;28;45624;-68
2023/06/23 14:25:41;;;;;;;;;2.25;2.25;;;;;;;;4962883;28;45385;-68
2023/06/23 14:28:06;;;;;;;;;1.50;1.50;;;;;;;;4971872;28;45476;-68
2023/06/23 14:30:31;;;;;;;;;2.00;2.00;;;;;;;;4967403;28;47030;-69
2023/06/23 14:32:57;;;;;;;;;1.25;1.25;;;;;;;;4968786;28;46506;-69
2023/06/23 14:35:22;;;;;;;;;2.25;2.25;;;;;;;;4967724;28;45544;-69
2023/06/23 14:37:47;;;;;;;;;1.25;1.25;;;;;;;;4971934;28;45425;-69
2023/06/23 14:40:12;;;;;;;;;0.50;0.00;;;;;;;;4966277;28;45405;-69